Historique des mesures à Cassis (13260), France
Quotidien Résumé Mars 6, 2017 Unités:  US    Métrique   Métrique/US
« Précédent (Jour)
Suivant (Jour) »
Quotidien Hebdomadaire Mensuel Annuel Période au choix
  Maximum: Minimum: Moyenne:
Température: 32 °F 52 °F 54.1 °F
Point de rosée: 32 °F 35.4 °F 43.7 °F
Humidité: Humidity % 46 % 65 %
Vitesse du vent: WindSpeedKMH mph 0.0 mph 11.4 mph
Rafales: WindSpeedGustKMH mph - -
Vent:- - WSW
Pression: 0 in 29.7 in -
Précipitations: 38.1 in    
Historical Graphs
 
 
Mesures pour : Mars 6, 2017
Heure Temperature Point de rosée Pression Vent Vitesse du vent Rafales Humidité Pluie (par heure) Conditions
32 °F 32 °F 0 in Calm     Humidity % 0 in SoftwareType W/m2
00:11 52.7 °F 46 °F 29.9 in West 7.6 mph 15.8 mph 78 % 0 in open2300-1.11 W/m2
01:10 53.4 °F 46 °F 29.9 in NW 13.4 mph 16.9 mph 76 % 0 in open2300-1.11 W/m2
02:11 53.6 °F 45.9 °F 29.9 in West 6.8 mph 6.8 mph 75 % 0 in open2300-1.11 W/m2
03:10 53.8 °F 46 °F 29.9 in NW 3.2 mph 3.2 mph 75 % 0 in open2300-1.11 W/m2
04:11 53.4 °F 44.6 °F 29.8 in NW 10.8 mph 10.8 mph 72 % 0 in open2300-1.11 W/m2
05:10 53.4 °F 44.2 °F 29.8 in NW 12.6 mph 12.6 mph 71 % 0 in open2300-1.11 W/m2
06:11 53.4 °F 42.3 °F 29.8 in North 5.0 mph 21.6 mph 66 % 0 in open2300-1.11 W/m2
07:10 53.2 °F 42.4 °F 29.8 in Calm     67 % 0 in open2300-1.11 W/m2
08:11 52.5 °F 44.1 °F 29.8 in Calm     73 % 0 in open2300-1.11 W/m2
09:10 52 °F 44.8 °F 29.8 in Calm   2.6 mph 76 % 0 in open2300-1.11 W/m2
10:11 52.3 °F 45.7 °F 29.8 in Calm   4.3 mph 78 % 12.7 in open2300-1.11 W/m2
11:11 53.4 °F 47.5 °F 29.8 in Calm     80 % 0 in open2300-1.11 W/m2
12:11 54.3 °F 48.6 °F 29.8 in SSW 3.5 mph 3.5 mph 81 % 12.7 in open2300-1.11 W/m2
13:10 55.8 °F 50.4 °F 29.8 in West 5.0 mph 20.9 mph 82 % 0 in open2300-1.11 W/m2
14:11 59.2 °F 53.1 °F 29.7 in NNW 2.9 mph 14.8 mph 80 % 0 in open2300-1.11 W/m2
15:10 59.2 °F 52.7 °F 29.7 in North 7.2 mph 18.0 mph 79 % 0 in open2300-1.11 W/m2
16:11 61.5 °F 49.3 °F 29.7 in WNW 30.2 mph 30.2 mph 64 % 12.7 in open2300-1.11 W/m2
17:10 60.6 °F 42.4 °F 29.7 in West 34.1 mph 34.1 mph 51 % 0 in open2300-1.11 W/m2
18:11 58.8 °F 39.2 °F 29.7 in NNE 18.0 mph 49.7 mph 48 % 0 in open2300-1.11 W/m2
19:10 57.6 °F 39.2 °F 29.7 in WNW 25.3 mph 25.3 mph 50 % 0 in open2300-1.11 W/m2
20:11 56.1 °F 35.4 °F 29.8 in WNW 28.2 mph 48.9 mph 46 % 0 in open2300-1.11 W/m2
21:10 54.7 °F 36.3 °F 29.8 in WNW 12.6 mph 31.7 mph 50 % 0 in open2300-1.11 W/m2
22:11 53.8 °F 36.5 °F 29.8 in WNW 33.8 mph 33.8 mph 52 % 0 in open2300-1.11 W/m2
23:10 52.3 °F 37 °F 29.8 in NW 25.6 mph 37.5 mph 56 % 0 in open2300-1.11 W/m2
Observations météo à CASSIS
WU-History script by Weather Underground - 1 mb